Airfield :
LOGIN :

Register | Disclaimer

   EN    FR    IT 

 










Legend :    VFR   Marginal VFR   IFR   Intensive IFR   Very Intensive IFR
Visi :
Ceiling :
>= 8 km
>= 3000ft
5 to 8 km
1000 to 3000 ft
1500m to 5 km
500 to 1000 ft
800 to 1500m
200 to 500 ft
< 800m
< 200 ft
Symbols :   Thunderstorms  Fog  Heavy snow  Heavy precipitations  Wind > 20 kt
SIGMETs :     Misc.  Thunderstorms  Icing  Turbulence  Mountain Waves  Volcanic Ashes







- Airport Elevation : 309 ft
- IATA code : FNI
- Download approach charts


LFTW - Nîmes Garons

EXPIRED METARs :
  • 201500Z AUTO 02012KT CAVOK 12/01 Q1008 TEMPO 36020G30KT

TAF TAF LFTW
Valid from the 20 at 15:00 until the 21 at 15:00 UTC


201400Z 2015/2115 36012KT CAVOK
TEMPO 2015/2022 36020G30KT
TEMPO 2022/2106 36015G25KT
TEMPO 2106/2113 36020G35KT
No reported NOTAMs for that airfield.
1 SIGMET reported for the Marseille FIR (LFMM) :
 
Severe turbulence
LFMM SIGMET 1 VALID 210400/210800 LFPW
LFMM MARSEILLE FIR/UIR SEV TURB FCST WI N4315 E00415 - N4445 E00430 - N4445 E00500 - N4315 E00500 - N4315 E00415 SFC/FL050 STNR NC=



MET'MAP, your aeronautical weather chart ! - Copyright ORBIFLY December 2007 - Disclaimer

ORBIFLY MET'MAP TEAM :

Programming & Development : Alexandra Zaïnal
Concept & Development : Baudouin d'Aumeries
Co-Development & Prog : Marc-Olivier Méhu
Technical & hardware support : Manuel Goepfert

Contact : metmap@orbifly.com




SOURCES & CREDITS :

   NOAA